createdAt,value
2022-09-28T00:00:50.615Z,78.85
2022-09-28T00:01:50.684Z,78.78
2022-09-28T00:02:50.720Z,78.78
2022-09-28T00:03:50.579Z,79.36
2022-09-28T00:04:50.570Z,79.16
2022-09-28T00:05:50.558Z,79.09
2022-09-28T00:06:50.543Z,78.95
2022-09-28T00:07:50.546Z,79.09
2022-09-28T00:08:50.522Z,79.19
2022-09-28T00:09:50.559Z,79.50
2022-09-28T00:10:50.499Z,79.19
2022-09-28T00:11:50.490Z,79.25
2022-09-28T00:12:50.503Z,79.29
2022-09-28T00:13:50.468Z,78.68
2022-09-28T00:14:50.458Z,79.16
2022-09-28T00:15:50.452Z,79.29
2022-09-28T00:16:50.494Z,78.75
2022-09-28T00:17:50.436Z,79.25
2022-09-28T00:18:50.412Z,79.29
2022-09-28T00:19:50.404Z,78.64
2022-09-28T00:20:50.394Z,78.99
2022-09-28T00:21:50.381Z,79.19
2022-09-28T00:22:50.386Z,79.39
2022-09-28T00:23:50.360Z,79.70
2022-09-28T00:24:50.346Z,79.29
2022-09-28T00:25:50.347Z,79.29
2022-09-28T00:26:50.326Z,79.19
2022-09-28T00:27:50.334Z,79.29
2022-09-28T00:28:50.323Z,79.39
2022-09-28T00:29:50.293Z,80.32
2022-09-28T00:30:50.280Z,80.35
2022-09-28T00:31:50.355Z,80.52
2022-09-28T00:32:50.269Z,80.25
2022-09-28T00:33:50.249Z,80.35
2022-09-28T00:34:50.239Z,80.25
2022-09-28T00:35:50.228Z,80.66
2022-09-28T00:36:50.218Z,80.56
2022-09-28T00:37:50.214Z,80.35
2022-09-28T00:38:50.192Z,80.46
2022-09-28T00:39:50.182Z,80.35
2022-09-28T00:40:50.318Z,80.46
2022-09-28T00:41:50.163Z,80.56
2022-09-28T00:42:50.158Z,80.46
2022-09-28T00:43:50.141Z,80.25
2022-09-28T00:44:50.148Z,80.46
2022-09-28T00:45:50.173Z,80.32
2022-09-28T00:46:50.108Z,80.56
2022-09-28T00:47:50.108Z,80.56
2022-09-28T00:48:50.082Z,80.46
2022-09-28T00:49:50.073Z,80.56
2022-09-28T00:50:50.062Z,80.66
2022-09-28T00:51:50.052Z,80.52
2022-09-28T00:52:50.052Z,80.32
2022-09-28T00:53:50.029Z,80.32
2022-09-28T00:54:50.020Z,80.35
2022-09-28T00:55:50.007Z,80.32
2022-09-28T00:56:49.996Z,80.21
2022-09-28T00:57:49.998Z,80.11
2022-09-28T00:58:49.980Z,80.11
2022-09-28T00:59:49.961Z,80.32
2022-09-28T01:00:50.028Z,80.38
2022-09-28T01:01:49.990Z,80.42
2022-09-28T01:02:49.942Z,80.21
2022-09-28T01:03:49.919Z,80.32
2022-09-28T01:04:49.911Z,80.52
2022-09-28T01:05:49.901Z,80.28
2022-09-28T01:06:49.887Z,80.42
2022-09-28T01:07:49.885Z,79.77
2022-09-28T01:08:49.866Z,79.39
2022-09-28T01:09:49.852Z,79.36
2022-09-28T01:10:49.843Z,79.70
2022-09-28T01:11:49.832Z,79.70
2022-09-28T01:12:49.831Z,79.57
2022-09-28T01:13:49.809Z,79.36
2022-09-28T01:14:49.800Z,79.16
2022-09-28T01:15:49.787Z,79.29
2022-09-28T01:16:49.913Z,79.25
2022-09-28T01:17:49.774Z,79.29
2022-09-28T01:18:49.758Z,79.36
2022-09-28T01:19:49.744Z,79.70
2022-09-28T01:20:49.801Z,79.39
2022-09-28T01:21:49.723Z,79.57
2022-09-28T01:22:49.727Z,79.80
2022-09-28T01:23:49.701Z,79.87
2022-09-28T01:24:49.691Z,79.87
2022-09-28T01:25:49.680Z,79.77
2022-09-28T01:26:49.669Z,79.77
2022-09-28T01:27:49.668Z,79.50
2022-09-28T01:28:49.647Z,79.09
2022-09-28T01:29:49.635Z,79.43
2022-09-28T01:30:49.628Z,80.35
2022-09-28T01:31:49.635Z,80.32
2022-09-28T01:32:49.633Z,80.21
2022-09-28T01:33:49.591Z,80.32
2022-09-28T01:34:49.584Z,80.42
2022-09-28T01:35:49.570Z,80.42
2022-09-28T01:36:49.570Z,80.21
2022-09-28T01:37:49.549Z,80.21
2022-09-28T01:38:49.538Z,80.21
2022-09-28T01:39:49.527Z,80.01
2022-09-28T01:40:49.567Z,80.01
2022-09-28T01:41:49.522Z,80.21
2022-09-28T01:42:49.495Z,80.48
2022-09-28T01:43:49.483Z,80.01
2022-09-28T01:44:49.473Z,80.32
2022-09-28T01:45:49.521Z,80.32
2022-09-28T01:46:49.460Z,79.91
2022-09-28T01:47:49.441Z,79.87
2022-09-28T01:48:49.448Z,79.60
2022-09-28T01:49:49.415Z,79.57
2022-09-28T01:50:49.409Z,79.29
2022-09-28T01:51:49.406Z,79.46
2022-09-28T01:52:49.386Z,79.36
2022-09-28T01:53:49.372Z,79.36
2022-09-28T01:54:49.363Z,79.66
2022-09-28T01:55:49.349Z,79.36
2022-09-28T01:56:49.350Z,79.36
2022-09-28T01:57:49.328Z,79.25
2022-09-28T01:58:49.321Z,79.36
2022-09-28T01:59:49.307Z,79.16
2022-09-28T02:00:49.314Z,79.36
2022-09-28T02:01:49.386Z,78.75
2022-09-28T02:02:49.279Z,79.05
2022-09-28T02:03:49.263Z,79.36
2022-09-28T02:04:49.273Z,78.95
2022-09-28T02:05:49.245Z,79.16
2022-09-28T02:06:49.246Z,79.16
2022-09-28T02:07:49.226Z,79.16
2022-09-28T02:08:49.211Z,79.25
2022-09-28T02:09:49.199Z,79.09
2022-09-28T02:10:49.193Z,79.05
2022-09-28T02:11:49.187Z,79.16
2022-09-28T02:12:49.168Z,79.66
2022-09-28T02:13:49.155Z,80.18
2022-09-28T02:14:49.150Z,80.32
2022-09-28T02:15:49.141Z,80.42
2022-09-28T02:16:49.122Z,80.38
2022-09-28T02:17:49.112Z,79.80
2022-09-28T02:18:49.114Z,80.28
2022-09-28T02:19:49.088Z,80.48
2022-09-28T02:20:49.107Z,80.42
2022-09-28T02:21:49.066Z,80.48
2022-09-28T02:22:49.057Z,80.18
2022-09-28T02:23:49.043Z,80.18
2022-09-28T02:24:49.034Z,80.28
2022-09-28T02:25:49.087Z,80.38
2022-09-28T02:26:49.014Z,80.18
2022-09-28T02:27:49.012Z,80.11
2022-09-28T02:28:48.990Z,80.32
2022-09-28T02:29:48.977Z,80.28
2022-09-28T02:30:48.980Z,80.28
2022-09-28T02:31:49.024Z,80.32
2022-09-28T02:32:48.978Z,80.38
2022-09-28T02:33:48.938Z,80.28
2022-09-28T02:34:48.924Z,80.18
2022-09-28T02:35:48.922Z,80.38
2022-09-28T02:36:48.921Z,80.21
2022-09-28T02:37:48.890Z,80.18
2022-09-28T02:38:48.885Z,80.32
2022-09-28T02:39:48.868Z,80.18
2022-09-28T02:40:48.928Z,80.01
2022-09-28T02:41:48.845Z,80.01
2022-09-28T02:42:48.835Z,80.18
2022-09-28T02:43:48.823Z,80.32
2022-09-28T02:44:48.814Z,80.21
2022-09-28T02:45:48.874Z,80.21
2022-09-28T02:46:48.821Z,80.28
2022-09-28T02:47:48.780Z,80.42
2022-09-28T02:49:00.133Z,80.32
2022-09-28T02:49:49.757Z,80.28
2022-09-28T02:50:48.770Z,80.11
2022-09-28T02:51:48.740Z,80.38
2022-09-28T02:52:48.744Z,80.32
2022-09-28T02:53:48.715Z,80.42
2022-09-28T02:54:48.711Z,80.38
2022-09-28T02:55:48.700Z,80.28
2022-09-28T02:56:48.682Z,80.62
2022-09-28T02:57:55.185Z,80.73
2022-09-28T02:58:48.660Z,80.73
2022-09-28T02:59:48.650Z,80.52
2022-09-28T03:00:48.683Z,80.89
2022-09-28T03:01:48.736Z,80.62
2022-09-28T03:02:48.623Z,80.38
2022-09-28T03:03:48.618Z,80.32
2022-09-28T03:04:48.599Z,80.21
2022-09-28T03:05:48.592Z,80.32
2022-09-28T03:06:48.580Z,80.42
2022-09-28T03:07:48.562Z,80.32
2022-09-28T03:08:48.576Z,80.93
2022-09-28T03:09:48.552Z,80.62
2022-09-28T03:10:48.529Z,81.13
2022-09-28T03:11:48.516Z,81.17
2022-09-28T03:12:48.568Z,81.44
2022-09-28T03:13:48.493Z,81.24
2022-09-28T03:14:48.496Z,81.24
2022-09-28T03:15:49.108Z,81.24
2022-09-28T03:16:48.464Z,81.24
2022-09-28T03:17:48.451Z,81.07
2022-09-28T03:18:48.441Z,81.34
2022-09-28T03:19:48.442Z,81.85
2022-09-28T03:20:48.418Z,81.85
2022-09-28T03:21:48.406Z,81.95
2022-09-28T03:23:00.477Z,81.54
2022-09-28T03:23:49.381Z,81.95
2022-09-28T03:24:48.412Z,81.95
2022-09-28T03:25:48.367Z,81.44
2022-09-28T03:26:48.353Z,81.74
2022-09-28T03:27:48.339Z,81.65
2022-09-28T03:28:48.330Z,81.74
2022-09-28T03:29:48.329Z,81.85
2022-09-28T03:30:48.358Z,81.44
2022-09-28T03:31:48.390Z,81.44
2022-09-28T03:32:48.285Z,81.44
2022-09-28T03:33:48.277Z,81.34
2022-09-28T03:34:48.277Z,81.65
2022-09-28T03:35:48.253Z,81.38
2022-09-28T03:36:48.273Z,81.24
2022-09-28T03:37:48.230Z,81.48
2022-09-28T03:38:48.221Z,81.68
2022-09-28T03:39:48.220Z,81.58
2022-09-28T03:40:48.318Z,81.88
2022-09-28T03:41:48.218Z,81.99
2022-09-28T03:42:48.184Z,81.82
2022-09-28T03:43:48.177Z,81.88
2022-09-28T03:44:48.156Z,82.34
2022-09-28T03:45:48.211Z,82.09
2022-09-28T03:46:48.134Z,81.68
2022-09-28T03:47:48.121Z,82.13
2022-09-28T03:48:48.126Z,82.34
2022-09-28T03:49:48.102Z,82.64
2022-09-28T03:50:48.090Z,82.54
2022-09-28T03:51:48.080Z,82.75
2022-09-28T03:52:48.080Z,82.34
2022-09-28T03:53:48.068Z,82.34
2022-09-28T03:54:49.394Z,82.95
2022-09-28T03:55:48.034Z,82.34
2022-09-28T03:56:48.049Z,82.34
2022-09-28T03:57:48.012Z,82.23
2022-09-28T03:58:48.012Z,82.43
2022-09-28T03:59:47.989Z,82.23
2022-09-28T04:00:48.033Z,82.43
2022-09-28T04:01:48.013Z,82.43
2022-09-28T04:02:47.961Z,82.43
2022-09-28T04:03:47.963Z,82.95
2022-09-28T04:04:47.935Z,82.13
2022-09-28T04:05:47.923Z,82.43
2022-09-28T04:06:47.914Z,82.68
2022-09-28T04:07:47.904Z,82.43
2022-09-28T04:08:47.904Z,82.54
2022-09-28T04:09:47.880Z,82.34
2022-09-28T04:10:47.873Z,82.23
2022-09-28T04:12:03.287Z,82.13
2022-09-28T04:12:48.865Z,82.54
2022-09-28T04:13:47.860Z,82.54
2022-09-28T04:14:47.826Z,82.78
2022-09-28T04:15:47.814Z,82.57
2022-09-28T04:16:47.835Z,82.57
2022-09-28T04:17:47.794Z,82.64
2022-09-28T04:18:47.794Z,82.68
2022-09-28T04:19:47.770Z,82.98
2022-09-28T04:20:47.761Z,82.64
2022-09-28T04:21:47.750Z,83.09
2022-09-28T04:22:47.740Z,83.25
2022-09-28T04:23:47.765Z,83.05
2022-09-28T04:24:47.717Z,83.05
2022-09-28T04:25:47.706Z,83.25
2022-09-28T04:26:47.695Z,82.95
2022-09-28T04:27:47.682Z,83.15
2022-09-28T04:28:47.843Z,83.15
2022-09-28T04:29:47.663Z,83.15
2022-09-28T04:30:47.652Z,82.95
2022-09-28T04:31:47.701Z,83.05
2022-09-28T04:32:47.633Z,83.15
2022-09-28T04:33:47.629Z,83.15
2022-09-28T04:34:47.606Z,82.95
2022-09-28T04:35:47.637Z,82.34
2022-09-28T04:36:47.588Z,82.34
2022-09-28T04:37:47.575Z,82.34
2022-09-28T04:38:54.744Z,82.75
2022-09-28T04:39:48.800Z,82.95
2022-09-28T04:40:47.583Z,82.64
2022-09-28T04:41:47.529Z,82.03
2022-09-28T04:42:47.520Z,82.54
2022-09-28T04:43:47.521Z,82.34
2022-09-28T04:44:47.527Z,82.03
2022-09-28T04:45:47.527Z,82.64
2022-09-28T04:46:47.477Z,82.43
2022-09-28T04:47:47.464Z,82.13
2022-09-28T04:48:47.465Z,82.13
2022-09-28T04:49:47.442Z,82.34
2022-09-28T04:50:47.434Z,82.13
2022-09-28T04:51:47.455Z,82.13
2022-09-28T04:52:47.411Z,81.82
2022-09-28T04:53:47.411Z,81.62
2022-09-28T04:54:47.389Z,82.23
2022-09-28T04:55:47.376Z,82.57
2022-09-28T04:56:47.369Z,82.54
2022-09-28T04:57:47.364Z,82.84
2022-09-28T04:58:51.877Z,83.05
2022-09-28T04:59:48.332Z,83.15
2022-09-28T05:00:47.375Z,82.95
2022-09-28T05:01:47.310Z,82.95
2022-09-28T05:02:47.302Z,83.56
2022-09-28T05:03:47.302Z,83.46
2022-09-28T05:04:47.288Z,83.56
2022-09-28T05:05:47.266Z,82.95
2022-09-28T05:06:47.258Z,83.05
2022-09-28T05:07:47.245Z,82.75
2022-09-28T05:08:47.267Z,83.36
2022-09-28T05:09:47.223Z,82.75
2022-09-28T05:10:47.212Z,82.43
2022-09-28T05:11:47.215Z,82.13
2022-09-28T05:12:47.192Z,82.75
2022-09-28T05:13:47.195Z,82.50
2022-09-28T05:14:47.167Z,82.40
2022-09-28T05:15:47.158Z,82.60
2022-09-28T05:16:47.255Z,82.60
2022-09-28T05:17:47.139Z,82.50
2022-09-28T05:18:47.135Z,82.29
2022-09-28T05:19:47.113Z,82.40
2022-09-28T05:20:47.111Z,82.84
2022-09-28T05:21:47.096Z,82.91
2022-09-28T05:22:47.079Z,82.50
2022-09-28T05:23:47.082Z,82.20
2022-09-28T05:24:47.056Z,82.09
2022-09-28T05:25:47.048Z,82.50
2022-09-28T05:26:47.034Z,82.50
2022-09-28T05:27:47.025Z,82.70
2022-09-28T05:28:47.024Z,82.29
2022-09-28T05:29:47.008Z,82.60
2022-09-28T05:30:46.990Z,82.64
2022-09-28T05:31:47.031Z,82.54
2022-09-28T05:32:46.989Z,82.40
2022-09-28T05:33:46.973Z,82.29
2022-09-28T05:34:46.952Z,82.29
2022-09-28T05:35:51.019Z,82.60
2022-09-28T05:36:47.924Z,82.40
2022-09-28T05:37:46.916Z,82.60
2022-09-28T05:38:46.915Z,82.50
2022-09-28T05:39:46.895Z,82.50
2022-09-28T05:40:46.941Z,82.20
2022-09-28T05:41:46.872Z,81.88
2022-09-28T05:42:46.857Z,81.38
2022-09-28T05:43:46.863Z,82.13
2022-09-28T05:44:46.837Z,82.23
2022-09-28T05:45:49.350Z,82.43
2022-09-28T05:46:46.816Z,82.13
2022-09-28T05:47:46.808Z,82.54
2022-09-28T05:48:46.822Z,82.54
2022-09-28T05:49:46.784Z,82.54
2022-09-28T05:50:46.771Z,82.03
2022-09-28T05:51:46.782Z,82.70
2022-09-28T05:52:46.770Z,82.29
2022-09-28T05:53:46.751Z,82.54
2022-09-28T05:54:46.731Z,82.20
2022-09-28T05:55:46.780Z,82.29
2022-09-28T05:56:46.712Z,82.34
2022-09-28T05:57:46.696Z,82.40
2022-09-28T05:58:46.696Z,82.50
2022-09-28T05:59:46.675Z,81.99
2022-09-28T06:00:46.712Z,81.95
2022-09-28T06:01:46.655Z,82.01
2022-09-28T06:02:46.709Z,80.58
2022-09-28T06:03:46.642Z,80.28
2022-09-28T06:04:46.635Z,80.24
2022-09-28T06:05:46.610Z,80.30
2022-09-28T06:06:46.602Z,78.88
2022-09-28T06:07:46.587Z,78.74
2022-09-28T06:08:46.584Z,78.19
2022-09-28T06:09:46.566Z,78.39
2022-09-28T06:10:46.555Z,76.93
2022-09-28T06:11:46.546Z,76.69
2022-09-28T06:12:46.533Z,75.43
2022-09-28T06:13:46.540Z,74.69
2022-09-28T06:14:46.509Z,73.43
2022-09-28T06:15:46.505Z,72.89
2022-09-28T06:16:46.563Z,72.14
2022-09-28T06:17:46.479Z,71.06
2022-09-28T06:18:46.481Z,70.76
2022-09-28T06:19:46.458Z,69.60
2022-09-28T06:20:46.461Z,68.87
2022-09-28T06:21:46.441Z,67.82
2022-09-28T06:22:46.422Z,67.28
2022-09-28T06:23:49.154Z,66.44
2022-09-28T06:24:46.412Z,66.30
2022-09-28T06:25:46.393Z,65.50
2022-09-28T06:26:46.387Z,65.06
2022-09-28T06:27:46.375Z,64.86
2022-09-28T06:28:46.372Z,64.22
2022-09-28T06:29:46.349Z,63.92
2022-09-28T06:30:46.379Z,63.68
2022-09-28T06:31:46.335Z,63.48
2022-09-28T06:32:46.316Z,63.76
2022-09-28T06:33:46.331Z,62.82
2022-09-28T06:34:46.305Z,61.91
2022-09-28T06:35:46.285Z,61.47
2022-09-28T06:36:46.289Z,60.33
2022-09-28T06:37:46.271Z,60.94
2022-09-28T06:38:46.260Z,60.21
2022-09-28T06:39:46.241Z,59.70
2022-09-28T06:40:46.322Z,58.74
2022-09-28T06:41:46.219Z,58.44
2022-09-28T06:42:46.208Z,58.01
2022-09-28T06:43:46.216Z,57.81
2022-09-28T06:44:46.209Z,57.17
2022-09-28T06:45:46.190Z,56.14
2022-09-28T06:46:46.171Z,56.34
2022-09-28T06:47:46.156Z,55.91
2022-09-28T06:48:46.159Z,55.38
2022-09-28T06:49:46.132Z,54.65
2022-09-28T06:50:46.122Z,54.05
2022-09-28T06:51:46.114Z,53.92
2022-09-28T06:52:46.115Z,52.89
2022-09-28T06:53:46.099Z,52.80
2022-09-28T06:54:46.078Z,53.09
2022-09-28T06:55:46.106Z,52.57
2022-09-28T06:56:46.055Z,52.77
2022-09-28T06:57:46.046Z,51.97
2022-09-28T06:58:46.043Z,52.37
2022-09-28T06:59:46.024Z,52.47
2022-09-28T07:00:46.076Z,52.24
2022-09-28T07:01:46.069Z,51.84
2022-09-28T07:02:46.018Z,51.12
2022-09-28T07:03:45.991Z,51.82
2022-09-28T07:04:45.969Z,50.99
2022-09-28T07:05:45.960Z,51.19
2022-09-28T07:06:45.947Z,51.37
2022-09-28T07:07:45.942Z,50.16
2022-09-28T07:08:53.172Z,49.54
2022-09-28T07:09:51.312Z,49.44
2022-09-28T07:10:46.909Z,49.74
2022-09-28T07:11:45.897Z,49.94
2022-09-28T07:12:45.883Z,50.12
2022-09-28T07:13:50.699Z,50.04
2022-09-28T07:14:48.075Z,49.02
2022-09-28T07:15:45.874Z,49.40
2022-09-28T07:17:09.666Z,48.99
2022-09-28T07:17:58.657Z,48.67
2022-09-28T07:18:46.829Z,47.65
2022-09-28T07:19:45.815Z,48.07
2022-09-28T07:20:53.413Z,47.55
2022-09-28T07:21:56.079Z,47.85
2022-09-28T07:22:46.782Z,47.55
2022-09-28T07:23:53.494Z,48.99
2022-09-28T07:24:46.775Z,48.39
2022-09-28T07:25:45.750Z,48.67
2022-09-28T07:26:45.739Z,47.67
2022-09-28T07:27:45.741Z,47.55
2022-09-28T07:28:45.714Z,47.85
2022-09-28T07:29:45.709Z,47.72
2022-09-28T07:30:45.780Z,47.53
2022-09-28T07:31:45.687Z,47.10
2022-09-28T07:32:45.685Z,47.33
2022-09-28T07:33:45.664Z,47.00
2022-09-28T07:34:45.655Z,47.30
2022-09-28T07:35:45.655Z,46.88
2022-09-28T07:36:45.634Z,46.38
2022-09-28T07:37:45.635Z,46.78
2022-09-28T07:38:45.614Z,46.78
2022-09-28T07:39:45.615Z,46.20
2022-09-28T07:40:48.380Z,46.70
2022-09-28T07:41:45.587Z,46.80
2022-09-28T07:42:45.581Z,47.10
2022-09-28T07:43:45.569Z,47.53
2022-09-28T07:44:45.572Z,47.19
2022-09-28T07:45:45.601Z,48.39
2022-09-28T07:46:45.530Z,47.79
2022-09-28T07:47:45.542Z,49.16
2022-09-28T07:48:45.512Z,49.19
2022-09-28T07:49:45.514Z,50.63
2022-09-28T07:50:45.489Z,50.54
2022-09-28T07:51:45.485Z,50.94
2022-09-28T07:52:45.485Z,51.67
2022-09-28T07:53:45.463Z,51.39
2022-09-28T07:54:45.445Z,51.49
2022-09-28T07:55:45.440Z,51.59
2022-09-28T07:56:45.443Z,51.99
2022-09-28T07:57:45.441Z,51.99
2022-09-28T07:58:45.403Z,52.49
2022-09-28T07:59:45.394Z,52.69
2022-09-28T08:00:45.386Z,52.32
2022-09-28T08:01:45.505Z,52.74
2022-09-28T08:02:45.436Z,52.64
2022-09-28T08:03:45.365Z,52.84
2022-09-28T08:04:45.353Z,53.57
2022-09-28T08:05:45.331Z,53.70
2022-09-28T08:06:45.317Z,54.73
2022-09-28T08:07:45.327Z,54.83
2022-09-28T08:08:45.296Z,54.53
2022-09-28T08:09:45.286Z,54.63
2022-09-28T08:10:47.292Z,55.16
2022-09-28T08:11:45.269Z,55.49
2022-09-28T08:12:45.282Z,55.89
2022-09-28T08:13:45.246Z,56.12
2022-09-28T08:14:45.232Z,56.12
2022-09-28T08:15:45.225Z,56.62
2022-09-28T08:16:46.726Z,56.65
2022-09-28T08:17:45.200Z,56.45
2022-09-28T08:18:45.198Z,56.15
2022-09-28T08:19:45.185Z,57.48
2022-09-28T08:20:48.101Z,58.12
2022-09-28T08:21:46.157Z,58.65
2022-09-28T08:22:45.142Z,58.98
2022-09-28T08:23:45.176Z,59.08
2022-09-28T08:24:45.120Z,59.69
2022-09-28T08:25:45.113Z,59.69
2022-09-28T08:26:45.098Z,60.19
2022-09-28T08:27:45.089Z,59.78
2022-09-28T08:28:45.292Z,60.12
2022-09-28T08:29:45.080Z,60.62
2022-09-28T08:30:45.101Z,60.85
2022-09-28T08:31:45.060Z,60.75
2022-09-28T08:32:45.043Z,60.65
2022-09-28T08:33:45.026Z,61.08
2022-09-28T08:34:45.024Z,62.30
2022-09-28T08:35:45.006Z,62.73
2022-09-28T08:36:45.016Z,62.33
2022-09-28T08:37:50.573Z,62.84
2022-09-28T08:38:45.978Z,62.56
2022-09-28T08:39:44.965Z,62.63
2022-09-28T08:40:45.080Z,62.76
2022-09-28T08:41:44.942Z,63.87
2022-09-28T08:42:44.944Z,63.98
2022-09-28T08:43:44.919Z,63.27
2022-09-28T08:44:44.948Z,63.78
2022-09-28T08:45:44.939Z,63.07
2022-09-28T08:46:44.889Z,62.96
2022-09-28T08:47:44.884Z,63.78
2022-09-28T08:48:51.771Z,63.67
2022-09-28T08:49:45.876Z,63.27
2022-09-28T08:50:44.844Z,64.38
2022-09-28T08:51:44.832Z,64.01
2022-09-28T08:52:44.837Z,63.67
2022-09-28T08:53:44.828Z,62.96
2022-09-28T08:54:44.801Z,62.49
2022-09-28T08:55:44.792Z,62.59
2022-09-28T08:56:44.780Z,63.30
2022-09-28T08:57:44.781Z,63.30
2022-09-28T08:58:44.755Z,63.43
2022-09-28T08:59:44.748Z,64.14
2022-09-28T09:00:44.756Z,64.75
2022-09-28T09:01:44.838Z,64.54
2022-09-28T09:02:44.739Z,64.64
2022-09-28T09:03:44.706Z,64.54
2022-09-28T09:04:44.692Z,64.34
2022-09-28T09:05:44.682Z,63.83
2022-09-28T09:06:44.731Z,63.81
2022-09-28T09:07:44.669Z,63.70
2022-09-28T09:08:44.649Z,63.09
2022-09-28T09:09:44.639Z,62.35
2022-09-28T09:10:44.629Z,62.26
2022-09-28T09:11:44.618Z,61.92
2022-09-28T09:12:44.643Z,61.79
2022-09-28T09:13:44.596Z,61.69
2022-09-28T09:14:44.587Z,60.96
2022-09-28T09:15:44.576Z,60.42
2022-09-28T09:16:44.660Z,60.39
2022-09-28T09:17:44.562Z,59.99
2022-09-28T09:18:44.538Z,59.45
2022-09-28T09:19:44.530Z,58.19
2022-09-28T09:20:44.518Z,57.86
2022-09-28T09:21:44.514Z,57.25
2022-09-28T09:22:44.507Z,57.65
2022-09-28T09:23:44.487Z,57.38
2022-09-28T09:24:44.476Z,57.35
2022-09-28T09:25:44.468Z,56.32
2022-09-28T09:26:44.461Z,54.86
2022-09-28T09:27:44.505Z,53.63
2022-09-28T09:28:44.436Z,52.89
2022-09-28T09:29:44.425Z,52.59
2022-09-28T09:30:44.444Z,52.44
2022-09-28T09:31:44.417Z,52.87
2022-09-28T09:32:44.409Z,51.74
2022-09-28T09:33:44.413Z,51.49
2022-09-28T09:34:44.371Z,50.91
2022-09-28T09:35:44.363Z,49.16
2022-09-28T09:36:44.362Z,47.93
2022-09-28T09:37:44.337Z,47.31
2022-09-28T09:38:44.328Z,46.98
2022-09-28T09:39:44.314Z,47.66
2022-09-28T09:40:44.335Z,47.34
2022-09-28T09:41:44.294Z,47.14
2022-09-28T09:42:44.300Z,47.43
2022-09-28T09:43:44.276Z,48.75
2022-09-28T09:44:44.263Z,46.48
2022-09-28T09:45:44.307Z,46.68
2022-09-28T09:46:44.242Z,46.91
2022-09-28T09:47:44.240Z,48.98
2022-09-28T09:48:44.239Z,47.03
2022-09-28T09:49:44.244Z,46.83
2022-09-28T09:50:44.201Z,47.13
2022-09-28T09:51:44.190Z,47.53
2022-09-28T09:52:44.487Z,48.66
2022-09-28T09:53:44.168Z,49.08
2022-09-28T09:54:44.158Z,49.40
2022-09-28T09:55:44.147Z,50.13
2022-09-28T09:56:44.172Z,50.35
2022-09-28T09:57:44.133Z,50.96
2022-09-28T09:58:44.119Z,51.49
2022-09-28T09:59:44.104Z,51.31
2022-09-28T10:00:44.093Z,52.42
2022-09-28T10:01:44.112Z,51.97
2022-09-28T10:02:44.127Z,52.47
2022-09-28T10:03:44.061Z,52.87
2022-09-28T10:04:44.072Z,52.01
2022-09-28T10:05:44.041Z,51.39
2022-09-28T10:06:44.037Z,50.26
2022-09-28T10:07:44.030Z,50.35
2022-09-28T10:08:44.009Z,50.26
2022-09-28T10:09:43.995Z,49.77
2022-09-28T10:10:43.986Z,50.28
2022-09-28T10:11:43.973Z,50.81
2022-09-28T10:12:43.975Z,50.73
2022-09-28T10:13:43.953Z,51.06
2022-09-28T10:14:43.944Z,51.89
2022-09-28T10:15:43.931Z,52.24
2022-09-28T10:16:43.978Z,53.14
2022-09-28T10:17:43.920Z,53.58
2022-09-28T10:18:43.899Z,53.75
2022-09-28T10:19:43.897Z,54.08
2022-09-28T10:20:43.899Z,54.89
2022-09-28T10:21:43.866Z,53.80
2022-09-28T10:22:43.865Z,53.90
2022-09-28T10:23:43.844Z,54.03
2022-09-28T10:24:43.842Z,53.93
2022-09-28T10:25:43.825Z,54.13
2022-09-28T10:26:43.824Z,54.23
2022-09-28T10:27:43.800Z,54.94
2022-09-28T10:28:43.799Z,54.66
2022-09-28T10:29:43.779Z,55.47
2022-09-28T10:30:43.810Z,55.74
2022-09-28T10:31:43.767Z,56.18
2022-09-28T10:32:43.747Z,56.27
2022-09-28T10:33:43.809Z,56.38
2022-09-28T10:34:47.495Z,55.98
2022-09-28T10:35:44.714Z,55.85
2022-09-28T10:36:43.745Z,55.98
2022-09-28T10:37:43.696Z,55.67
2022-09-28T10:38:43.686Z,55.69
2022-09-28T10:39:43.673Z,56.30
2022-09-28T10:40:43.814Z,57.14
2022-09-28T10:41:43.662Z,57.95
2022-09-28T10:42:43.642Z,58.65
2022-09-28T10:43:46.562Z,59.16
2022-09-28T10:44:44.620Z,58.76
2022-09-28T10:45:43.667Z,59.39
2022-09-28T10:46:43.609Z,59.70
2022-09-28T10:47:43.588Z,59.29
2022-09-28T10:48:43.577Z,60.30
2022-09-28T10:49:46.983Z,58.89
2022-09-28T10:50:43.557Z,59.09
2022-09-28T10:51:43.553Z,60.41
2022-09-28T10:52:43.552Z,60.84
2022-09-28T10:53:43.525Z,61.14
2022-09-28T10:54:43.514Z,62.05
2022-09-28T10:55:43.504Z,62.35
2022-09-28T10:56:43.504Z,62.79
2022-09-28T10:57:43.482Z,62.49
2022-09-28T10:58:43.469Z,62.79
2022-09-28T10:59:43.457Z,62.99
2022-09-28T11:00:43.447Z,63.81
2022-09-28T11:01:43.521Z,63.43
2022-09-28T11:02:43.444Z,63.66
2022-09-28T11:03:43.441Z,63.96
2022-09-28T11:04:43.411Z,64.37
2022-09-28T11:05:43.393Z,64.67
2022-09-28T11:06:43.392Z,64.78
2022-09-28T11:07:43.401Z,64.70
2022-09-28T11:08:44.582Z,64.58
2022-09-28T11:09:46.220Z,64.70
2022-09-28T11:10:43.356Z,64.40
2022-09-28T11:11:43.335Z,65.04
2022-09-28T11:12:43.315Z,66.26
2022-09-28T11:13:43.362Z,66.49
2022-09-28T11:14:43.296Z,67.07
2022-09-28T11:15:43.289Z,66.56
2022-09-28T11:16:43.343Z,66.90
2022-09-28T11:17:43.265Z,66.77
2022-09-28T11:18:43.252Z,66.86
2022-09-28T11:19:43.241Z,67.07
2022-09-28T11:20:45.406Z,66.86
2022-09-28T11:21:43.228Z,66.86
2022-09-28T11:22:43.209Z,67.07
2022-09-28T11:23:43.196Z,65.95
2022-09-28T11:24:43.206Z,66.66
2022-09-28T11:25:43.175Z,66.66
2022-09-28T11:26:43.180Z,66.66
2022-09-28T11:27:43.152Z,66.46
2022-09-28T11:28:43.144Z,66.97
2022-09-28T11:29:43.136Z,66.97
2022-09-28T11:30:43.231Z,67.03
2022-09-28T11:31:43.122Z,66.86
2022-09-28T11:32:43.101Z,67.03
2022-09-28T11:33:43.086Z,66.74
2022-09-28T11:34:58.667Z,67.14
2022-09-28T11:35:44.067Z,66.83
2022-09-28T11:36:43.069Z,66.63
2022-09-28T11:37:43.043Z,66.63
2022-09-28T11:38:43.034Z,66.70
2022-09-28T11:39:43.064Z,66.09
2022-09-28T11:40:43.101Z,66.53
2022-09-28T11:41:43.019Z,66.13
2022-09-28T11:42:42.993Z,66.63
2022-09-28T11:43:42.982Z,66.86
2022-09-28T11:44:42.969Z,67.58
2022-09-28T11:45:43.034Z,67.38
2022-09-28T11:46:42.958Z,66.97
2022-09-28T11:47:42.942Z,67.17
2022-09-28T11:48:42.928Z,67.47
2022-09-28T11:49:42.912Z,67.58
2022-09-28T11:50:42.912Z,67.03
2022-09-28T11:51:42.907Z,66.46
2022-09-28T11:52:42.900Z,66.02
2022-09-28T11:53:42.870Z,66.02
2022-09-28T11:54:42.859Z,66.16
2022-09-28T11:55:42.864Z,66.26
2022-09-28T11:56:42.867Z,65.34
2022-09-28T11:57:42.829Z,65.75
2022-09-28T11:58:42.936Z,65.24
2022-09-28T11:59:42.807Z,64.70
2022-09-28T12:00:42.808Z,64.43
2022-09-28T12:01:42.792Z,63.49
2022-09-28T12:02:42.965Z,63.39
2022-09-28T12:03:43.041Z,63.89
2022-09-28T12:04:42.762Z,63.49
2022-09-28T12:05:42.739Z,63.29
2022-09-28T12:06:42.741Z,63.79
2022-09-28T12:07:42.730Z,63.29
2022-09-28T12:08:42.707Z,63.79
2022-09-28T12:09:42.694Z,64.00
2022-09-28T12:10:45.507Z,63.79
2022-09-28T12:11:42.688Z,63.89
2022-09-28T12:12:42.687Z,64.00
2022-09-28T12:13:42.652Z,63.29
2022-09-28T12:14:42.645Z,62.88
2022-09-28T12:16:11.612Z,63.08
2022-09-28T12:17:04.881Z,62.37
2022-09-28T12:17:43.687Z,62.57
2022-09-28T12:18:42.603Z,62.14
2022-09-28T12:19:42.590Z,62.48
2022-09-28T12:20:42.580Z,62.27
2022-09-28T12:21:42.628Z,62.57
2022-09-28T12:22:42.566Z,62.45
2022-09-28T12:23:42.545Z,62.37
2022-09-28T12:24:42.539Z,62.45
2022-09-28T12:25:42.526Z,62.34
2022-09-28T12:26:42.569Z,62.24
2022-09-28T12:27:42.503Z,62.45
2022-09-28T12:28:42.508Z,62.45
2022-09-28T12:29:42.479Z,62.27
2022-09-28T12:30:42.602Z,63.15
2022-09-28T12:31:42.477Z,62.37
2022-09-28T12:32:42.452Z,62.48
2022-09-28T12:33:42.438Z,62.48
2022-09-28T12:34:42.428Z,62.27
2022-09-28T12:35:42.417Z,62.17
2022-09-28T12:36:42.424Z,62.54
2022-09-28T12:37:42.397Z,62.65
2022-09-28T12:38:42.390Z,62.24
2022-09-28T12:39:57.114Z,62.27
2022-09-28T12:40:43.405Z,62.27
2022-09-28T12:41:42.361Z,62.27
2022-09-28T12:42:42.339Z,62.34
2022-09-28T12:43:42.338Z,61.74
2022-09-28T12:44:42.375Z,61.13
2022-09-28T12:46:06.810Z,60.82
2022-09-28T12:46:43.357Z,61.63
2022-09-28T12:47:42.292Z,61.53
2022-09-28T12:48:42.284Z,61.53
2022-09-28T12:50:37.217Z,61.23
2022-09-28T12:50:51.209Z,60.93
2022-09-28T12:51:43.248Z,61.33
2022-09-28T12:52:42.263Z,61.33